createdAt,value
2019-05-03T00:00:26.080Z,8.97
2019-05-03T00:03:12.077Z,8.90
2019-05-03T00:05:52.456Z,7.43
2019-05-03T00:08:22.958Z,7.57
2019-05-03T00:10:53.294Z,8.40
2019-05-03T00:13:23.676Z,8.50
2019-05-03T00:16:12.677Z,8.80
2019-05-03T00:18:43.039Z,8.73
2019-05-03T00:21:13.459Z,8.20
2019-05-03T00:23:43.860Z,6.50
2019-05-03T00:26:14.257Z,6.63
2019-05-03T00:28:44.615Z,6.97
2019-05-03T00:31:14.931Z,6.60
2019-05-03T00:33:47.138Z,6.80
2019-05-03T00:36:23.934Z,6.13
2019-05-03T00:38:57.629Z,8.00
2019-05-03T00:41:27.938Z,7.30
2019-05-03T00:43:58.432Z,8.33
2019-05-03T00:46:28.792Z,8.13
2019-05-03T00:48:59.129Z,7.40
2019-05-03T00:51:29.398Z,8.70
2019-05-03T00:53:59.848Z,8.40
2019-05-03T00:56:32.052Z,6.80
2019-05-03T00:59:02.340Z,7.30
2019-05-03T01:01:33.279Z,7.80
2019-05-03T01:04:03.745Z,7.13
2019-05-03T01:06:34.035Z,7.57
2019-05-03T01:09:06.979Z,6.77
2019-05-03T01:11:37.320Z,7.03
2019-05-03T01:14:07.603Z,6.70
2019-05-03T01:16:38.067Z,8.40
2019-05-03T01:19:08.843Z,7.57
2019-05-03T01:21:39.127Z,8.23
2019-05-03T01:24:09.535Z,8.57
2019-05-03T01:26:41.938Z,8.50
2019-05-03T01:29:12.307Z,8.17
2019-05-03T01:31:42.710Z,8.43
2019-05-03T01:34:13.107Z,8.67
2019-05-03T01:36:43.583Z,9.40
2019-05-03T01:39:14.091Z,7.83
2019-05-03T01:41:44.552Z,9.97
2019-05-03T01:44:14.849Z,8.93
2019-05-03T01:46:45.678Z,9.13
2019-05-03T01:49:43.681Z,8.80
2019-05-03T01:52:27.188Z,9.40
2019-05-03T01:54:57.496Z,8.63
2019-05-03T01:57:27.841Z,7.90
2019-05-03T01:59:58.338Z,9.80
2019-05-03T02:02:45.548Z,8.40
2019-05-03T02:05:42.802Z,8.10
2019-05-03T02:08:14.396Z,9.50
2019-05-03T02:10:44.826Z,8.87
2019-05-03T02:13:15.220Z,8.70
2019-05-03T02:15:45.767Z,9.73
2019-05-03T02:18:16.359Z,9.53
2019-05-03T02:20:46.699Z,9.83
2019-05-03T02:23:17.010Z,9.87
2019-05-03T02:25:56.103Z,9.40
2019-05-03T02:28:19.581Z,9.27
2019-05-03T02:30:49.946Z,10.00
2019-05-03T02:33:20.479Z,10.30
2019-05-03T02:35:53.372Z,10.50
2019-05-03T02:38:23.517Z,9.80
2019-05-03T02:40:54.054Z,10.20
2019-05-03T02:43:39.067Z,10.57
2019-05-03T02:46:25.305Z,9.97
2019-05-03T02:49:01.543Z,10.73
2019-05-03T02:51:31.990Z,10.73
2019-05-03T02:54:05.581Z,10.77
2019-05-03T02:56:37.233Z,10.03
2019-05-03T02:59:07.750Z,10.80
2019-05-03T03:01:38.538Z,10.73
2019-05-03T03:04:09.321Z,11.13
2019-05-03T03:06:40.299Z,9.87
2019-05-03T03:09:10.954Z,10.53
2019-05-03T03:11:42.718Z,10.43
2019-05-03T03:14:17.827Z,11.27
2019-05-03T03:16:52.534Z,10.23
2019-05-03T03:19:26.221Z,11.03
2019-05-03T03:22:00.566Z,10.00
2019-05-03T03:24:36.120Z,10.40
2019-05-03T03:27:09.427Z,10.97
2019-05-03T03:29:42.068Z,10.90
2019-05-03T03:32:29.527Z,10.50
2019-05-03T03:35:20.376Z,10.90
2019-05-03T03:37:46.698Z,10.77
2019-05-03T03:40:19.212Z,10.60
2019-05-03T03:42:52.148Z,11.20
2019-05-03T03:45:25.196Z,11.57
2019-05-03T03:47:56.611Z,11.30
2019-05-03T03:50:30.730Z,10.70
2019-05-03T03:53:06.672Z,11.53
2019-05-03T03:55:39.384Z,10.43
2019-05-03T03:58:10.357Z,11.00
2019-05-03T04:00:41.850Z,10.23
2019-05-03T04:03:15.515Z,11.27
2019-05-03T04:05:46.792Z,11.20
2019-05-03T04:08:17.029Z,11.40
2019-05-03T04:10:47.639Z,10.47
2019-05-03T04:13:20.196Z,10.37
2019-05-03T04:16:00.980Z,11.90
2019-05-03T04:18:45.571Z,11.00
2019-05-03T04:21:16.354Z,11.00
2019-05-03T04:23:47.819Z,10.70
2019-05-03T04:26:18.208Z,11.13
2019-05-03T04:28:49.436Z,10.13
2019-05-03T04:31:19.942Z,11.53
2019-05-03T04:33:50.300Z,10.27
2019-05-03T04:36:20.751Z,10.80
2019-05-03T04:38:51.831Z,11.13
2019-05-03T04:41:22.238Z,10.97
2019-05-03T04:43:55.244Z,10.17
2019-05-03T04:46:26.128Z,11.07
2019-05-03T04:48:56.807Z,11.10
2019-05-03T04:51:27.283Z,10.93
2019-05-03T04:54:16.361Z,10.30
2019-05-03T04:56:46.982Z,10.63
2019-05-03T04:59:17.511Z,10.90
2019-05-03T05:01:48.053Z,10.90
2019-05-03T05:04:18.352Z,11.13
2019-05-03T05:06:48.714Z,10.03
2019-05-03T05:09:19.107Z,9.83
2019-05-03T05:11:51.739Z,10.90
2019-05-03T05:14:22.174Z,10.27
2019-05-03T05:16:55.487Z,10.13
2019-05-03T05:19:35.408Z,9.57
2019-05-03T05:22:08.082Z,9.37
2019-05-03T05:24:38.505Z,10.37
2019-05-03T05:27:25.917Z,9.70
2019-05-03T05:29:57.066Z,10.63
2019-05-03T05:32:27.336Z,11.67
2019-05-03T05:34:57.841Z,11.90
2019-05-03T05:37:28.200Z,11.23
2019-05-03T05:39:58.566Z,11.63
2019-05-03T05:42:29.311Z,11.63
2019-05-03T05:44:59.649Z,10.80
2019-05-03T05:47:38.663Z,11.43
2019-05-03T05:50:15.553Z,11.00
2019-05-03T05:52:45.918Z,10.90
2019-05-03T05:55:36.054Z,12.00
2019-05-03T05:58:15.700Z,11.60
2019-05-03T06:00:51.875Z,11.50
2019-05-03T06:03:22.272Z,11.80
2019-05-03T06:05:55.008Z,12.33
2019-05-03T06:08:44.688Z,11.53
2019-05-03T06:11:25.977Z,11.93
2019-05-03T06:14:07.158Z,11.73
2019-05-03T06:16:59.257Z,12.17
2019-05-03T06:19:34.597Z,12.10
2019-05-03T06:22:21.591Z,11.00
2019-05-03T06:24:57.525Z,12.40
2019-05-03T06:27:32.305Z,10.60
2019-05-03T06:30:10.013Z,12.10
2019-05-03T06:32:41.522Z,11.93
2019-05-03T06:35:11.801Z,12.37
2019-05-03T06:37:45.925Z,12.33
2019-05-03T06:40:16.596Z,12.43
2019-05-03T06:42:54.502Z,13.30
2019-05-03T06:45:19.062Z,12.60
2019-05-03T06:47:50.092Z,12.80
2019-05-03T06:50:25.230Z,13.70
2019-05-03T06:52:54.684Z,14.13
2019-05-03T06:55:24.926Z,14.87
2019-05-03T06:57:55.233Z,15.40
2019-05-03T07:00:42.819Z,14.17
2019-05-03T07:03:25.199Z,14.00
2019-05-03T07:06:14.997Z,14.70
2019-05-03T07:09:07.640Z,13.83
2019-05-03T07:11:38.226Z,13.37
2019-05-03T07:14:08.634Z,12.30
2019-05-03T07:16:40.109Z,12.30
2019-05-03T07:19:10.458Z,12.90
2019-05-03T07:21:41.039Z,12.50
2019-05-03T07:24:11.755Z,12.73
2019-05-03T07:26:42.240Z,11.93
2019-05-03T07:29:12.587Z,11.60
2019-05-03T07:31:44.684Z,13.70
2019-05-03T07:34:15.678Z,11.97
2019-05-03T07:36:47.428Z,12.57
2019-05-03T07:39:18.110Z,13.97
2019-05-03T07:41:48.523Z,13.57
2019-05-03T07:44:18.925Z,16.30
2019-05-03T07:46:49.533Z,19.10
2019-05-03T07:49:20.066Z,16.63
2019-05-03T07:51:50.404Z,17.20
2019-05-03T07:54:21.925Z,17.70
2019-05-03T07:57:00.487Z,16.73
2019-05-03T07:59:31.075Z,16.67
2019-05-03T08:02:01.387Z,16.60
2019-05-03T08:04:31.873Z,19.10
2019-05-03T08:07:04.412Z,19.67
2019-05-03T08:09:35.222Z,16.97
2019-05-03T08:12:05.729Z,16.03
2019-05-03T08:14:36.127Z,18.20
2019-05-03T08:17:06.611Z,16.90
2019-05-03T08:19:37.093Z,16.03
2019-05-03T08:22:07.366Z,18.50
2019-05-03T08:24:38.095Z,19.63
2019-05-03T08:40:12.240Z,14.00
2019-05-03T08:42:44.432Z,15.93
2019-05-03T08:45:14.946Z,14.80
2019-05-03T08:47:45.257Z,13.40
2019-05-03T08:50:21.240Z,14.10
2019-05-03T08:52:47.978Z,13.03
2019-05-03T08:55:18.339Z,11.47
2019-05-03T08:57:48.839Z,12.70
2019-05-03T09:00:20.939Z,11.60
2019-05-03T09:02:51.250Z,10.93
2019-05-03T09:05:21.682Z,10.67
2019-05-03T09:07:52.105Z,11.97
2019-05-03T09:10:41.438Z,12.50
2019-05-03T09:13:14.719Z,10.90
2019-05-03T09:15:45.617Z,11.93
2019-05-03T09:18:17.495Z,12.20
2019-05-03T09:20:48.119Z,11.27
2019-05-03T09:23:18.618Z,10.60
2019-05-03T09:25:49.014Z,11.13
2019-05-03T09:28:19.450Z,10.73
2019-05-03T09:30:50.055Z,10.83
2019-05-03T09:33:20.386Z,10.37
2019-05-03T09:35:50.753Z,10.03
2019-05-03T09:38:21.415Z,10.57
2019-05-03T09:40:52.046Z,10.37
2019-05-03T09:43:25.269Z,10.83
2019-05-03T09:45:55.730Z,10.30
2019-05-03T09:48:26.180Z,10.13
2019-05-03T09:50:56.521Z,11.37
2019-05-03T09:53:29.560Z,12.77
2019-05-03T09:55:59.926Z,14.10
2019-05-03T09:58:30.267Z,12.60
2019-05-03T10:01:00.676Z,13.40
2019-05-03T10:03:31.120Z,12.50
2019-05-03T10:06:01.566Z,12.80
2019-05-03T10:08:31.992Z,11.90
2019-05-03T10:11:11.515Z,12.57
2019-05-03T10:13:42.205Z,12.60
2019-05-03T10:16:35.097Z,13.87
2019-05-03T10:19:05.650Z,14.83
2019-05-03T10:21:37.696Z,13.27
2019-05-03T10:24:08.030Z,13.10
2019-05-03T10:26:38.453Z,14.10
2019-05-03T10:29:08.906Z,14.07
2019-05-03T10:31:49.498Z,13.40
2019-05-03T10:34:19.916Z,13.43
2019-05-03T10:36:50.272Z,13.90
2019-05-03T10:39:20.800Z,12.67
2019-05-03T10:44:55.535Z,13.47
2019-05-03T10:47:25.934Z,13.67
2019-05-03T10:49:56.765Z,13.50
2019-05-03T10:52:44.594Z,13.80
2019-05-03T10:55:15.959Z,14.70
2019-05-03T10:57:49.159Z,13.67
2019-05-03T11:00:42.548Z,13.87
2019-05-03T11:02:59.917Z,13.50
2019-05-03T11:05:31.712Z,13.50
2019-05-03T11:08:02.045Z,13.50
2019-05-03T11:10:32.409Z,14.03
2019-05-03T11:13:05.870Z,13.53
2019-05-03T11:15:36.068Z,14.40
2019-05-03T11:18:06.616Z,13.00
2019-05-03T11:20:37.943Z,13.30
2019-05-03T11:23:09.004Z,12.60
2019-05-03T11:25:39.432Z,13.17
2019-05-03T11:28:25.419Z,13.77
2019-05-03T11:31:02.287Z,14.17
2019-05-03T11:33:39.294Z,14.40
2019-05-03T11:36:34.987Z,13.03
2019-05-03T11:39:07.192Z,13.03
2019-05-03T11:41:39.933Z,12.50
2019-05-03T11:44:27.442Z,12.80
2019-05-03T11:46:57.863Z,14.30
2019-05-03T11:49:28.257Z,13.40
2019-05-03T11:51:58.741Z,14.00
2019-05-03T11:54:29.379Z,14.30
2019-05-03T11:57:01.441Z,13.53
2019-05-03T11:59:31.851Z,13.37
2019-05-03T12:02:16.886Z,13.70
2019-05-03T12:04:47.278Z,13.90
2019-05-03T12:07:38.852Z,14.90
2019-05-03T12:10:15.116Z,14.27
2019-05-03T12:12:38.779Z,13.77
2019-05-03T12:15:09.595Z,14.10
2019-05-03T12:17:52.019Z,13.37
2019-05-03T12:20:17.228Z,15.07
2019-05-03T12:22:47.320Z,14.70
2019-05-03T12:25:19.230Z,14.53
2019-05-03T12:27:49.845Z,13.07
2019-05-03T12:30:20.400Z,13.50
2019-05-03T12:32:50.773Z,13.77
2019-05-03T12:35:21.656Z,14.07
2019-05-03T12:37:52.007Z,12.90
2019-05-03T12:40:22.453Z,12.17
2019-05-03T12:42:54.945Z,11.80
2019-05-03T12:45:24.944Z,12.30
2019-05-03T12:47:56.033Z,13.13
2019-05-03T12:50:26.479Z,13.43
2019-05-03T12:52:56.859Z,12.80
2019-05-03T12:55:27.339Z,14.10
2019-05-03T12:57:57.615Z,13.03
2019-05-03T13:00:45.669Z,15.03
2019-05-03T13:03:18.615Z,14.07
2019-05-03T13:05:49.088Z,13.30
2019-05-03T13:08:45.558Z,13.67
2019-05-03T13:11:16.265Z,12.10
2019-05-03T13:13:46.594Z,13.40
2019-05-03T13:16:19.987Z,13.00
2019-05-03T13:18:50.272Z,12.90
2019-05-03T13:21:20.606Z,12.77
2019-05-03T13:23:51.144Z,12.93
2019-05-03T13:26:21.519Z,13.27
2019-05-03T13:28:51.976Z,13.20
2019-05-03T13:31:22.345Z,13.63
2019-05-03T13:33:54.771Z,12.83
2019-05-03T13:36:25.296Z,13.23
2019-05-03T13:39:09.877Z,12.97
2019-05-03T13:41:28.054Z,12.13
2019-05-03T13:43:58.415Z,12.27
2019-05-03T13:46:28.882Z,11.10
2019-05-03T13:48:59.187Z,10.83
2019-05-03T13:51:29.573Z,9.90
2019-05-03T13:54:01.064Z,9.60
2019-05-03T13:56:31.393Z,9.90
2019-05-03T13:59:01.944Z,10.70
2019-05-03T14:01:32.399Z,10.00
2019-05-03T14:04:02.866Z,9.67
2019-05-03T14:06:34.518Z,10.17
2019-05-03T14:09:07.044Z,10.30
2019-05-03T14:11:37.400Z,8.83
2019-05-03T14:14:07.904Z,9.10
2019-05-03T14:16:38.318Z,9.53
2019-05-03T14:19:14.733Z,9.50
2019-05-03T14:21:49.511Z,9.30
2019-05-03T14:24:19.783Z,9.23
2019-05-03T14:26:50.179Z,9.60
2019-05-03T14:29:21.656Z,9.93
2019-05-03T14:31:51.959Z,9.53
2019-05-03T14:34:22.370Z,10.10
2019-05-03T14:36:55.457Z,9.17
2019-05-03T14:39:26.324Z,9.90
2019-05-03T14:41:56.910Z,9.77
2019-05-03T14:44:27.311Z,10.30
2019-05-03T14:46:59.202Z,9.83
2019-05-03T14:49:29.705Z,9.27
2019-05-03T14:52:00.097Z,10.23
2019-05-03T14:54:34.501Z,9.87
2019-05-03T14:57:26.556Z,9.93
2019-05-03T15:00:17.024Z,10.30
2019-05-03T15:02:58.062Z,10.30
2019-05-03T15:05:27.560Z,11.40
2019-05-03T15:07:58.257Z,10.73
2019-05-03T15:10:28.690Z,10.77
2019-05-03T15:12:59.052Z,10.10
2019-05-03T15:15:29.962Z,10.00
2019-05-03T15:18:00.565Z,10.10
2019-05-03T15:20:30.925Z,11.50
2019-05-03T15:23:01.291Z,10.57
2019-05-03T15:25:31.811Z,10.67
2019-05-03T15:28:02.189Z,11.30
2019-05-03T15:30:32.557Z,10.50
2019-05-03T15:33:04.856Z,10.77
2019-05-03T15:35:35.346Z,10.57
2019-05-03T15:38:06.503Z,10.47
2019-05-03T15:40:37.152Z,10.00
2019-05-03T15:43:29.189Z,10.83
2019-05-03T15:46:14.781Z,10.50
2019-05-03T15:48:48.438Z,9.40
2019-05-03T15:51:19.010Z,9.90
2019-05-03T15:53:50.431Z,10.00
2019-05-03T15:56:21.130Z,9.60
2019-05-03T15:59:28.930Z,9.80
2019-05-03T16:01:59.779Z,9.30
2019-05-03T16:04:31.456Z,9.47
2019-05-03T16:07:04.825Z,8.27
2019-05-03T16:09:35.301Z,8.50
2019-05-03T16:12:05.974Z,7.80
2019-05-03T16:14:36.902Z,8.53
2019-05-03T16:17:07.266Z,8.30
2019-05-03T16:19:37.693Z,9.17
2019-05-03T16:22:08.186Z,8.97
2019-05-03T16:24:40.817Z,9.53
2019-05-03T16:27:20.008Z,10.60
2019-05-03T16:29:50.434Z,10.40
2019-05-03T16:32:21.049Z,10.10
2019-05-03T16:34:51.580Z,11.00
2019-05-03T16:37:21.955Z,10.70
2019-05-03T16:39:52.323Z,11.23
2019-05-03T16:42:24.487Z,11.23
2019-05-03T16:44:55.082Z,10.83
2019-05-03T16:47:25.615Z,10.60
2019-05-03T16:49:56.327Z,10.93
2019-05-03T16:52:26.679Z,10.57
2019-05-03T16:54:57.134Z,11.17
2019-05-03T16:57:27.516Z,10.13
2019-05-03T16:59:57.884Z,9.60
2019-05-03T17:02:28.429Z,9.40
2019-05-03T17:05:09.785Z,9.53
2019-05-03T17:07:48.720Z,8.30
2019-05-03T17:10:30.284Z,9.40
2019-05-03T17:13:00.080Z,9.77
2019-05-03T17:15:30.635Z,9.83
2019-05-03T17:18:01.166Z,9.67
2019-05-03T17:20:31.646Z,8.77
2019-05-03T17:23:02.073Z,7.30
2019-05-03T17:25:35.146Z,8.67
2019-05-03T17:28:06.585Z,8.00
2019-05-03T17:30:37.959Z,7.57
2019-05-03T17:33:09.570Z,8.30
2019-05-03T17:35:45.029Z,7.77
2019-05-03T17:38:15.573Z,7.93
2019-05-03T17:40:55.044Z,7.93
2019-05-03T17:43:31.983Z,7.27
2019-05-03T17:46:04.306Z,6.70
2019-05-03T17:48:34.993Z,6.80
2019-05-03T17:51:05.502Z,8.03
2019-05-03T17:53:55.043Z,6.60
2019-05-03T17:56:47.905Z,7.40
2019-05-03T17:59:44.502Z,8.10
2019-05-03T18:02:37.040Z,6.70
2019-05-03T18:05:26.757Z,8.27
2019-05-03T18:08:21.916Z,8.00
2019-05-03T18:10:57.497Z,7.63
2019-05-03T18:13:27.948Z,8.00
2019-05-03T18:15:58.515Z,6.77
2019-05-03T18:18:28.948Z,7.00
2019-05-03T18:20:59.640Z,7.77
2019-05-03T18:23:30.091Z,8.00
2019-05-03T18:26:00.675Z,7.87
2019-05-03T18:28:32.176Z,8.83
2019-05-03T18:31:02.581Z,8.90
2019-05-03T18:33:32.965Z,7.17
2019-05-03T18:36:05.450Z,8.13
2019-05-03T18:38:41.514Z,7.97
2019-05-03T18:41:13.295Z,7.77
2019-05-03T18:44:08.725Z,7.83
2019-05-03T18:46:49.976Z,8.00
2019-05-03T18:49:20.751Z,8.27
2019-05-03T18:51:51.090Z,8.30
2019-05-03T18:54:21.797Z,8.03
2019-05-03T18:56:52.184Z,9.13
2019-05-03T18:59:22.901Z,9.93
2019-05-03T19:01:55.208Z,9.93
2019-05-03T19:04:35.822Z,10.20
2019-05-03T19:07:07.183Z,11.10
2019-05-03T19:10:01.703Z,11.13
2019-05-03T19:12:41.920Z,12.23
2019-05-03T19:15:14.445Z,11.00
2019-05-03T19:17:58.295Z,10.83
2019-05-03T19:20:45.562Z,10.87
2019-05-03T19:23:16.263Z,11.17
2019-05-03T19:25:49.456Z,9.50
2019-05-03T19:28:19.307Z,9.90
2019-05-03T19:30:50.116Z,10.03
2019-05-03T19:33:20.832Z,9.70
2019-05-03T19:35:54.899Z,9.53
2019-05-03T19:38:26.301Z,9.53
2019-05-03T19:40:56.844Z,10.10
2019-05-03T19:43:27.475Z,9.27
2019-05-03T19:45:58.449Z,9.00
2019-05-03T19:48:29.000Z,8.70
2019-05-03T19:50:59.629Z,9.57
2019-05-03T19:53:48.922Z,8.30
2019-05-03T19:56:20.994Z,8.63
2019-05-03T19:58:55.254Z,8.50
2019-05-03T20:01:44.963Z,8.87
2019-05-03T20:04:43.139Z,7.80
2019-05-03T20:07:30.802Z,9.30
2019-05-03T20:10:02.100Z,9.10
2019-05-03T20:12:32.647Z,9.77
2019-05-03T20:15:05.287Z,8.13
2019-05-03T20:17:37.640Z,9.00
2019-05-03T20:20:08.588Z,9.07
2019-05-03T20:22:40.608Z,8.70
2019-05-03T20:25:11.091Z,9.50
2019-05-03T20:27:41.586Z,8.90
2019-05-03T20:30:12.217Z,8.90
2019-05-03T20:32:44.910Z,9.23
2019-05-03T20:35:19.050Z,9.27
2019-05-03T20:37:47.298Z,8.97
2019-05-03T20:40:17.939Z,9.50
2019-05-03T20:43:05.686Z,10.30
2019-05-03T20:45:54.786Z,10.23
2019-05-03T20:48:25.896Z,9.80
2019-05-03T20:50:56.305Z,10.63
2019-05-03T20:53:26.824Z,9.93
2019-05-03T20:55:57.617Z,9.50
2019-05-03T20:58:28.128Z,9.77
2019-05-03T21:00:58.977Z,9.47
2019-05-03T21:03:29.952Z,8.60
2019-05-03T21:06:09.074Z,9.47
2019-05-03T21:08:50.694Z,8.40
2019-05-03T21:11:12.247Z,9.10
2019-05-03T21:13:44.549Z,9.43
2019-05-03T21:16:36.556Z,8.77
2019-05-03T21:19:38.422Z,9.10
2019-05-03T21:22:15.642Z,8.60
2019-05-03T21:25:01.085Z,8.40
2019-05-03T21:27:31.507Z,9.20
2019-05-03T21:30:04.604Z,8.47
2019-05-03T21:32:35.147Z,9.20
2019-05-03T21:35:06.026Z,8.77
2019-05-03T21:37:36.419Z,8.37
2019-05-03T21:40:08.043Z,8.30
2019-05-03T21:42:38.561Z,8.73
2019-05-03T21:45:10.385Z,10.73
2019-05-03T21:48:05.786Z,9.83
2019-05-03T21:50:36.261Z,11.63
2019-05-03T21:53:06.726Z,11.37
2019-05-03T21:55:37.348Z,10.40
2019-05-03T21:58:07.690Z,10.63
2019-05-03T22:00:50.162Z,9.67
2019-05-03T22:03:20.556Z,9.40
2019-05-03T22:05:55.014Z,8.33
2019-05-03T22:08:24.826Z,8.57
2019-05-03T22:10:55.800Z,8.33
2019-05-03T22:13:26.143Z,8.60
2019-05-03T22:16:10.669Z,9.00
2019-05-03T22:18:41.036Z,8.93
2019-05-03T22:21:28.830Z,8.97
2019-05-03T22:24:11.569Z,9.20
2019-05-03T22:26:59.384Z,8.97
2019-05-03T22:29:30.179Z,8.50
2019-05-03T22:32:00.595Z,9.70
2019-05-03T22:34:31.405Z,9.67
2019-05-03T22:37:01.754Z,8.77
2019-05-03T22:39:32.581Z,8.67
2019-05-03T22:42:04.524Z,9.00
2019-05-03T22:44:35.660Z,10.27
2019-05-03T22:47:06.161Z,9.10
2019-05-03T22:49:37.306Z,9.00
2019-05-03T22:52:07.826Z,8.60
2019-05-03T22:54:38.157Z,8.13
2019-05-03T22:57:08.696Z,9.63
2019-05-03T22:59:39.091Z,8.50
2019-05-03T23:02:09.455Z,9.30
2019-05-03T23:04:39.936Z,9.70
2019-05-03T23:07:10.398Z,9.07
2019-05-03T23:09:40.908Z,9.10
2019-05-03T23:12:11.336Z,10.27
2019-05-03T23:14:41.743Z,10.00
2019-05-03T23:17:14.960Z,10.60
2019-05-03T23:19:48.224Z,9.60
2019-05-03T23:22:25.250Z,9.70
2019-05-03T23:24:55.806Z,9.47
2019-05-03T23:27:26.140Z,10.77
2019-05-03T23:29:56.465Z,10.90
2019-05-03T23:32:26.862Z,10.47
2019-05-03T23:34:57.293Z,10.90
2019-05-03T23:37:27.816Z,11.20
2019-05-03T23:39:58.655Z,11.43
2019-05-03T23:42:28.986Z,10.00
2019-05-03T23:45:02.190Z,10.90
2019-05-03T23:47:39.453Z,10.77
2019-05-03T23:50:12.186Z,10.50
2019-05-03T23:52:42.484Z,9.60
2019-05-03T23:55:44.941Z,9.43
2019-05-03T23:58:15.434Z,10.07
